YCBG weather

Hobart Cambridge Airport
Tasmania, Australia

Public forecast

Using degrees Celsius for public forecast. Weather courtesy of forecast.io.

Closest aviation weather report (METAR) to Hobart Cambridge Airport

Closest report is Hobart International Airport, 1.6 nm (3.0 km) ESE. Retrieved 2019/10/18 02:30 UTC (1 minute ago):

YMHB 180230Z 32014KT 9999 FEW055 BKN065 18/03 Q0998 RF000/0000

Closest aviation forecast (TAF) to Hobart Cambridge Airport

Closest forecast is Hobart International Airport, 1.6 nm (3.0 km) ESE. Retrieved 2019-10-18 00:36 UTC (2 hours ago):

TAF YMHB 172327Z 1800/1824 31014KT 9999 SCT030 BKN050 FM180400 31015G25KT 9999 -SHRA SCT030 BKN050 FM180700 30018G30KT 9999 -SHRA SCT030 SCT050 FM181000 32014KT 9999 -SHRA SCT030 FM181400 34015KT 9999 SCT025 BKN040 INTER 1805/1810 5000 SHRA BKN025